Time;durP1;ratioP1;P1;durP2;ratioP2;P2;SDS_P1;SDS_P2;PMS_P1;PMS_P2;Temp;Humidity;BMP_temperature;BMP_pressure;BME280_temperature;BME280_humidity;BME280_pressure;Samples;Min_cycle;Max_cycle;Signal;HPM_P1;HPM_P2
2022/04/19 00:00:35;;;;;;;;;;;;;;;;;;5096073;28;19930;-48
2022/04/19 00:03:02;;;;;;;;;;;;;;;;;;5112928;28;20080;-54
2022/04/19 00:05:29;;;;;;;;;;;;;;;;;;5111016;28;19931;-48
2022/04/19 00:07:55;;;;;;;;;;;;;;;;;;5112727;28;20342;-54
2022/04/19 00:10:22;;;;;;;;;;;;;;;;;;5112717;28;19915;-49
2022/04/19 00:12:48;;;;;;;;;;;;;;;;;;5100468;28;19909;-49
2022/04/19 00:15:18;;;;;;;;;;;;;;;;;;5093260;28;19908;-56
2022/04/19 00:17:54;;;;;;;;;;;;;;;;;;5093820;28;20370;-53
2022/04/19 00:20:21;;;;;;;;;;;;;;;;;;5093137;28;19999;-50
2022/04/19 00:22:49;;;;;;;;;;;;;;;;;;5093162;28;19923;-53
2022/04/19 00:25:15;;;;;;;;;;;;;;;;;;5093278;28;20367;-53
2022/04/19 00:27:42;;;;;;;;;;;;;;;;;;5092831;28;20003;-46
2022/04/19 00:30:09;;;;;;;;;;;;;;;;;;5092371;28;19938;-54
2022/04/19 00:32:35;;;;;;;;;;;;;;;;;;5092162;28;20374;-52
2022/04/19 00:35:02;;;;;;;;;;;;;;;;;;5092287;28;20000;-53
2022/04/19 00:37:28;;;;;;;;;;;;;;;;;;5091610;28;19909;-55
2022/04/19 00:39:58;;;;;;;;;;;;;;;;;;5091120;28;20389;-57
2022/04/19 00:42:26;;;;;;;;;;;;;;;;;;5092081;28;19916;-56
2022/04/19 00:44:53;;;;;;;;;;;;;;;;;;5091544;28;19912;-51
2022/04/19 00:47:19;;;;;;;;;;;;;;;;;;5093895;28;19909;-52
2022/04/19 00:49:47;;;;;;;;;;;;;;;;;;5095658;28;19919;-56
2022/04/19 00:52:13;;;;;;;;;;;;;;;;;;5095662;28;19920;-53
2022/04/19 00:54:41;;;;;;;;;;;;;;;;;;5095545;28;19908;-56
2022/04/19 00:57:08;;;;;;;;;;;;;;;;;;5093791;28;19908;-51
2022/04/19 00:59:34;;;;;;;;;;;;;;;;;;5095768;28;19912;-56
2022/04/19 01:02:01;;;;;;;;;;;;;;;;;;5095591;28;19965;-51
2022/04/19 01:04:27;;;;;;;;;;;;;;;;;;5099983;28;19919;-54
2022/04/19 01:06:54;;;;;;;;;;;;;;;;;;5114129;28;19915;-54
2022/04/19 01:09:21;;;;;;;;;;;;;;;;;;5115561;28;19934;-55
2022/04/19 01:14:32;;;;;;;;;;;;;;;;;;5115309;28;19953;-48
2022/04/19 01:16:58;;;;;;;;;;;;;;;;;;5115000;28;20018;-52
2022/04/19 01:19:25;;;;;;;;;;;;;;;;;;5115323;28;19908;-56
2022/04/19 01:21:54;;;;;;;;;;;;;;;;;;5114939;28;19916;-54
2022/04/19 01:24:20;;;;;;;;;;;;;;;;;;5115633;28;20362;-55
2022/04/19 01:26:47;;;;;;;;;;;;;;;;;;5115551;28;19911;-50
2022/04/19 01:29:13;;;;;;;;;;;;;;;;;;5114893;28;20273;-56
2022/04/19 01:31:40;;;;;;;;;;;;;;;;;;5115276;28;19930;-50
2022/04/19 01:34:06;;;;;;;;;;;;;;;;;;5115586;28;19912;-54
2022/04/19 01:36:33;;;;;;;;;;;;;;;;;;5115197;28;20309;-47
2022/04/19 01:38:59;;;;;;;;;;;;;;;;;;5115267;28;19998;-55
2022/04/19 01:41:26;;;;;;;;;;;;;;;;;;5114461;28;19911;-56
2022/04/19 01:43:53;;;;;;;;;;;;;;;;;;5114330;28;19911;-51
2022/04/19 01:46:19;;;;;;;;;;;;;;;;;;5114929;28;19908;-57
2022/04/19 01:48:46;;;;;;;;;;;;;;;;;;5114919;28;19943;-49
2022/04/19 01:51:14;;;;;;;;;;;;;;;;;;5113450;28;19908;-51
2022/04/19 01:53:40;;;;;;;;;;;;;;;;;;5114947;28;19961;-55
2022/04/19 01:56:07;;;;;;;;;;;;;;;;;;5113455;28;19990;-49
2022/04/19 01:58:33;;;;;;;;;;;;;;;;;;5112644;28;19915;-53
2022/04/19 02:01:00;;;;;;;;;;;;;;;;;;5114711;28;19915;-52
2022/04/19 02:03:26;;;;;;;;;;;;;;;;;;5114225;28;19972;-54
2022/04/19 02:05:53;;;;;;;;;;;;;;;;;;5114269;28;19919;-51
2022/04/19 02:08:19;;;;;;;;;;;;;;;;;;5114349;28;19915;-56
2022/04/19 02:10:46;;;;;;;;;;;;;;;;;;5114701;28;19912;-56
2022/04/19 02:13:15;;;;;;;;;;;;;;;;;;5114473;28;20365;-55
2022/04/19 02:15:43;;;;;;;;;;;;;;;;;;5113503;28;19926;-53
2022/04/19 02:18:10;;;;;;;;;;;;;;;;;;5114060;28;20064;-55
2022/04/19 02:20:37;;;;;;;;;;;;;;;;;;5114456;28;20029;-55
2022/04/19 02:23:03;;;;;;;;;;;;;;;;;;5113674;28;19920;-51
2022/04/19 02:25:29;;;;;;;;;;;;;;;;;;5114071;28;19912;-53
2022/04/19 02:27:56;;;;;;;;;;;;;;;;;;5113545;28;19964;-54
2022/04/19 02:30:22;;;;;;;;;;;;;;;;;;5114214;28;20376;-50
2022/04/19 02:32:49;;;;;;;;;;;;;;;;;;5113923;28;20006;-53
2022/04/19 02:35:18;;;;;;;;;;;;;;;;;;5113141;28;19950;-54
2022/04/19 02:37:44;;;;;;;;;;;;;;;;;;5113733;28;19916;-57
2022/04/19 02:40:11;;;;;;;;;;;;;;;;;;5113581;28;19930;-54
2022/04/19 02:42:38;;;;;;;;;;;;;;;;;;5113604;28;19915;-55
2022/04/19 02:45:08;;;;;;;;;;;;;;;;;;5112330;28;20247;-55
2022/04/19 02:47:34;;;;;;;;;;;;;;;;;;5114053;28;19904;-51
2022/04/19 02:50:01;;;;;;;;;;;;;;;;;;5113594;28;19908;-55
2022/04/19 02:52:27;;;;;;;;;;;;;;;;;;5113185;28;19928;-48
2022/04/19 02:54:54;;;;;;;;;;;;;;;;;;5113941;28;19957;-54
2022/04/19 02:57:20;;;;;;;;;;;;;;;;;;5113210;28;19904;-53
2022/04/19 02:59:47;;;;;;;;;;;;;;;;;;5113603;28;20381;-58
2022/04/19 03:02:14;;;;;;;;;;;;;;;;;;5097256;28;20404;-50
2022/04/19 03:04:40;;;;;;;;;;;;;;;;;;5092891;28;19916;-48
2022/04/19 03:07:07;;;;;;;;;;;;;;;;;;5091481;28;19953;-52
2022/04/19 03:09:33;;;;;;;;;;;;;;;;;;5092891;28;19985;-53
2022/04/19 03:12:00;;;;;;;;;;;;;;;;;;5093157;28;20361;-52
2022/04/19 03:14:26;;;;;;;;;;;;;;;;;;5092751;28;20350;-46
2022/04/19 03:16:53;;;;;;;;;;;;;;;;;;5092430;28;19908;-54
2022/04/19 03:19:20;;;;;;;;;;;;;;;;;;5092656;28;19908;-53
2022/04/19 03:21:46;;;;;;;;;;;;;;;;;;5091929;28;19916;-55
2022/04/19 03:29:42;;;;;;;;;;;;;;;;;;5113181;28;20304;-54
2022/04/19 03:32:09;;;;;;;;;;;;;;;;;;5113096;28;19931;-56
2022/04/19 03:34:36;;;;;;;;;;;;;;;;;;5112945;28;20422;-56
2022/04/19 03:37:02;;;;;;;;;;;;;;;;;;5113007;28;19960;-52
2022/04/19 03:39:29;;;;;;;;;;;;;;;;;;5113247;28;19911;-53
2022/04/19 03:41:57;;;;;;;;;;;;;;;;;;5112638;28;20586;-55
2022/04/19 03:44:25;;;;;;;;;;;;;;;;;;5112514;28;20354;-53
2022/04/19 03:47:10;;;;;;;;;;;;;;;;;;5112489;28;20269;-54
2022/04/19 03:49:36;;;;;;;;;;;;;;;;;;5111065;28;19918;-50
2022/04/19 03:52:03;;;;;;;;;;;;;;;;;;5112317;28;19908;-55
2022/04/19 03:54:29;;;;;;;;;;;;;;;;;;5113016;28;19907;-56
2022/04/19 03:56:55;;;;;;;;;;;;;;;;;;5113200;28;19912;-51
2022/04/19 03:59:22;;;;;;;;;;;;;;;;;;5112677;28;19916;-53
2022/04/19 04:01:49;;;;;;;;;;;;;;;;;;5112373;28;20369;-55
2022/04/19 04:04:15;;;;;;;;;;;;;;;;;;5112729;28;20290;-55
2022/04/19 04:06:42;;;;;;;;;;;;;;;;;;5113149;28;19994;-55
2022/04/19 04:09:08;;;;;;;;;;;;;;;;;;5112576;28;19908;-53
2022/04/19 04:11:36;;;;;;;;;;;;;;;;;;5110434;28;20101;-52
2022/04/19 04:14:03;;;;;;;;;;;;;;;;;;5112963;28;20003;-53
2022/04/19 04:16:29;;;;;;;;;;;;;;;;;;5112406;28;19915;-44
2022/04/19 04:18:56;;;;;;;;;;;;;;;;;;5112577;28;19911;-54
2022/04/19 04:21:22;;;;;;;;;;;;;;;;;;5112488;28;19908;-51
2022/04/19 04:23:49;;;;;;;;;;;;;;;;;;5116051;28;20293;-51
2022/04/19 04:26:15;;;;;;;;;;;;;;;;;;5116681;27;19961;-56
2022/04/19 04:28:42;;;;;;;;;;;;;;;;;;5116479;28;19947;-56
2022/04/19 04:31:08;;;;;;;;;;;;;;;;;;5116069;28;19998;-54
2022/04/19 04:33:35;;;;;;;;;;;;;;;;;;5116406;27;19912;-52
2022/04/19 04:36:01;;;;;;;;;;;;;;;;;;5115859;28;19917;-56
2022/04/19 04:38:28;;;;;;;;;;;;;;;;;;5116523;28;19960;-56
2022/04/19 04:40:54;;;;;;;;;;;;;;;;;;5116368;28;19934;-53
2022/04/19 04:43:21;;;;;;;;;;;;;;;;;;5115451;28;19923;-56
2022/04/19 04:49:35;;;;;;;;;;;;;;;;;;5116243;28;20285;-56
2022/04/19 04:51:18;;;;;;;;;;;;;;;;;;5115683;28;19970;-57
2022/04/19 04:53:44;;;;;;;;;;;;;;;;;;5115569;28;19907;-55
2022/04/19 04:56:11;;;;;;;;;;;;;;;;;;5115561;28;19908;-51
2022/04/19 04:58:37;;;;;;;;;;;;;;;;;;5116416;28;19939;-52
2022/04/19 05:01:04;;;;;;;;;;;;;;;;;;5115718;28;19915;-52
2022/04/19 05:03:30;;;;;;;;;;;;;;;;;;5115808;28;19916;-57
2022/04/19 05:05:57;;;;;;;;;;;;;;;;;;5115011;28;19926;-50
2022/04/19 05:08:23;;;;;;;;;;;;;;;;;;5115458;28;19908;-56
2022/04/19 05:10:50;;;;;;;;;;;;;;;;;;5115794;28;19908;-54
2022/04/19 05:13:16;;;;;;;;;;;;;;;;;;5115502;28;19957;-58
2022/04/19 05:15:43;;;;;;;;;;;;;;;;;;5115969;28;19991;-49
2022/04/19 05:18:09;;;;;;;;;;;;;;;;;;5115486;28;20435;-52
2022/04/19 05:20:35;;;;;;;;;;;;;;;;;;5114780;28;20373;-52
2022/04/19 05:23:02;;;;;;;;;;;;;;;;;;5115820;28;20274;-52
2022/04/19 05:25:28;;;;;;;;;;;;;;;;;;5115969;28;19976;-52
2022/04/19 05:27:55;;;;;;;;;;;;;;;;;;5115510;27;20381;-53
2022/04/19 05:30:21;;;;;;;;;;;;;;;;;;5115757;28;20369;-48
2022/04/19 05:32:48;;;;;;;;;;;;;;;;;;5114758;28;19904;-55
2022/04/19 05:35:15;;;;;;;;;;;;;;;;;;5114663;28;19908;-53
2022/04/19 05:37:41;;;;;;;;;;;;;;;;;;5115478;28;19904;-56
2022/04/19 05:40:08;;;;;;;;;;;;;;;;;;5115101;28;19908;-57
2022/04/19 05:42:34;;;;;;;;;;;;;;;;;;5114504;28;19980;-53
2022/04/19 05:45:01;;;;;;;;;;;;;;;;;;5114971;28;19912;-50
2022/04/19 05:47:27;;;;;;;;;;;;;;;;;;5114286;28;19984;-52
2022/04/19 05:49:53;;;;;;;;;;;;;;;;;;5113864;28;19908;-55
2022/04/19 05:52:20;;;;;;;;;;;;;;;;;;5114427;28;19912;-54
2022/04/19 05:54:46;;;;;;;;;;;;;;;;;;5114946;28;19908;-53
2022/04/19 05:57:13;;;;;;;;;;;;;;;;;;5113249;27;19912;-58
2022/04/19 05:59:39;;;;;;;;;;;;;;;;;;5114575;28;19904;-54
2022/04/19 06:04:53;;;;;;;;;;;;;;;;;;5113902;28;20011;-52
2022/04/19 06:07:20;;;;;;;;;;;;;;;;;;5114273;28;19907;-50
2022/04/19 06:09:46;;;;;;;;;;;;;;;;;;5114008;28;19912;-50
2022/04/19 06:12:13;;;;;;;;;;;;;;;;;;5114313;28;19913;-55
2022/04/19 06:14:39;;;;;;;;;;;;;;;;;;5112720;28;20009;-51
2022/04/19 06:17:06;;;;;;;;;;;;;;;;;;5113965;28;20003;-48
2022/04/19 06:19:32;;;;;;;;;;;;;;;;;;5113721;28;20250;-55
2022/04/19 06:21:59;;;;;;;;;;;;;;;;;;5114077;28;19921;-53
2022/04/19 06:24:25;;;;;;;;;;;;;;;;;;5114257;28;19912;-57
2022/04/19 06:26:52;;;;;;;;;;;;;;;;;;5114368;28;19960;-56
2022/04/19 06:29:18;;;;;;;;;;;;;;;;;;5113700;28;19943;-57
2022/04/19 06:31:45;;;;;;;;;;;;;;;;;;5113861;28;19912;-56
2022/04/19 06:34:11;;;;;;;;;;;;;;;;;;5112859;28;19907;-57
2022/04/19 06:36:38;;;;;;;;;;;;;;;;;;5113843;28;19914;-52
2022/04/19 06:39:04;;;;;;;;;;;;;;;;;;5113855;28;19915;-51
2022/04/19 06:41:32;;;;;;;;;;;;;;;;;;5113438;28;19911;-44
2022/04/19 06:43:59;;;;;;;;;;;;;;;;;;5113463;28;19927;-57
2022/04/19 06:46:25;;;;;;;;;;;;;;;;;;5112845;28;19955;-53
2022/04/19 06:48:54;;;;;;;;;;;;;;;;;;5113148;28;19907;-52
2022/04/19 06:51:20;;;;;;;;;;;;;;;;;;5112969;28;19908;-50
2022/04/19 06:53:47;;;;;;;;;;;;;;;;;;5113565;28;20269;-53
2022/04/19 06:56:13;;;;;;;;;;;;;;;;;;5113508;28;19925;-50
2022/04/19 06:58:39;;;;;;;;;;;;;;;;;;5111160;28;20311;-52
2022/04/19 07:01:06;;;;;;;;;;;;;;;;;;5113270;27;19908;-47
2022/04/19 07:03:33;;;;;;;;;;;;;;;;;;5112937;28;19978;-56
2022/04/19 07:05:59;;;;;;;;;;;;;;;;;;5112826;28;19965;-57
2022/04/19 07:08:26;;;;;;;;;;;;;;;;;;5113249;28;19912;-49
2022/04/19 07:10:52;;;;;;;;;;;;;;;;;;5112636;28;19908;-48
2022/04/19 07:13:19;;;;;;;;;;;;;;;;;;5112316;28;19908;-53
2022/04/19 07:15:45;;;;;;;;;;;;;;;;;;5113167;28;19908;-49
2022/04/19 07:18:13;;;;;;;;;;;;;;;;;;5113080;28;19915;-46
2022/04/19 07:28:53;;;;;;;;;;;;;;;;;;5113155;28;19915;-47
2022/04/19 07:31:20;;;;;;;;;;;;;;;;;;5113026;28;19933;-52
2022/04/19 07:33:46;;;;;;;;;;;;;;;;;;5111613;28;19954;-53
2022/04/19 07:36:13;;;;;;;;;;;;;;;;;;5112504;28;19908;-53
2022/04/19 07:38:39;;;;;;;;;;;;;;;;;;5112857;28;19912;-55
2022/04/19 07:41:06;;;;;;;;;;;;;;;;;;5112201;28;19919;-53
2022/04/19 07:43:33;;;;;;;;;;;;;;;;;;5112989;28;19939;-53
2022/04/19 07:45:59;;;;;;;;;;;;;;;;;;5112932;28;20006;-55
2022/04/19 07:48:26;;;;;;;;;;;;;;;;;;5112808;28;19912;-59
2022/04/19 07:50:53;;;;;;;;;;;;;;;;;;5112984;28;19908;-57
2022/04/19 07:53:19;;;;;;;;;;;;;;;;;;5112470;28;19911;-55
2022/04/19 07:55:46;;;;;;;;;;;;;;;;;;5112201;28;19911;-58
2022/04/19 07:58:12;;;;;;;;;;;;;;;;;;5116221;28;20076;-53
2022/04/19 08:00:39;;;;;;;;;;;;;;;;;;5116646;28;19908;-62
2022/04/19 08:03:05;;;;;;;;;;;;;;;;;;5116853;28;19923;-47
2022/04/19 08:05:31;;;;;;;;;;;;;;;;;;5116599;28;20002;-48
2022/04/19 08:07:58;;;;;;;;;;;;;;;;;;5117167;28;19908;-51
2022/04/19 08:10:24;;;;;;;;;;;;;;;;;;5116854;28;19934;-50
2022/04/19 08:12:51;;;;;;;;;;;;;;;;;;5117208;28;19908;-51
2022/04/19 08:15:19;;;;;;;;;;;;;;;;;;5116539;28;19939;-52
2022/04/19 08:17:45;;;;;;;;;;;;;;;;;;5117126;28;19908;-52
2022/04/19 08:20:15;;;;;;;;;;;;;;;;;;5115956;27;19907;-48
2022/04/19 08:22:41;;;;;;;;;;;;;;;;;;5116369;28;19916;-56
2022/04/19 08:25:10;;;;;;;;;;;;;;;;;;5116318;28;19937;-53
2022/04/19 08:27:36;;;;;;;;;;;;;;;;;;5116053;28;19996;-49
2022/04/19 08:30:03;;;;;;;;;;;;;;;;;;5116519;28;19915;-55
2022/04/19 08:32:30;;;;;;;;;;;;;;;;;;5115030;28;20271;-57
2022/04/19 08:34:56;;;;;;;;;;;;;;;;;;5097374;28;19930;-51
2022/04/19 08:37:23;;;;;;;;;;;;;;;;;;5096148;28;19912;-50
2022/04/19 08:39:49;;;;;;;;;;;;;;;;;;5096398;28;19908;-51
2022/04/19 08:42:16;;;;;;;;;;;;;;;;;;5096760;28;19924;-49
2022/04/19 08:44:44;;;;;;;;;;;;;;;;;;5095790;28;19919;-51
2022/04/19 08:47:11;;;;;;;;;;;;;;;;;;5095117;28;19951;-50
2022/04/19 08:49:39;;;;;;;;;;;;;;;;;;5095266;28;19908;-53
2022/04/19 08:52:05;;;;;;;;;;;;;;;;;;5093837;28;19955;-53
2022/04/19 08:57:31;;;;;;;;;;;;;;;;;;5095483;28;19935;-52
2022/04/19 08:59:58;;;;;;;;;;;;;;;;;;5095540;28;19970;-53
2022/04/19 09:02:24;;;;;;;;;;;;;;;;;;5096067;28;20330;-49
2022/04/19 09:04:52;;;;;;;;;;;;;;;;;;5095100;28;19920;-49
2022/04/19 09:07:18;;;;;;;;;;;;;;;;;;5095208;28;19908;-47
2022/04/19 09:09:45;;;;;;;;;;;;;;;;;;5095862;28;19908;-54
2022/04/19 09:12:12;;;;;;;;;;;;;;;;;;5095599;28;19990;-50
2022/04/19 09:14:38;;;;;;;;;;;;;;;;;;5095830;28;19912;-54
2022/04/19 09:17:05;;;;;;;;;;;;;;;;;;5095496;28;20366;-51
2022/04/19 09:19:31;;;;;;;;;;;;;;;;;;5094535;28;19909;-53
2022/04/19 09:21:58;;;;;;;;;;;;;;;;;;5094073;28;19914;-55
2022/04/19 09:24:25;;;;;;;;;;;;;;;;;;5095760;28;19912;-52
2022/04/19 09:26:51;;;;;;;;;;;;;;;;;;5095201;28;19908;-55
2022/04/19 09:29:18;;;;;;;;;;;;;;;;;;5095176;28;20366;-48
2022/04/19 09:31:45;;;;;;;;;;;;;;;;;;5095092;28;19912;-49
2022/04/19 09:34:11;;;;;;;;;;;;;;;;;;5095041;28;19908;-55
2022/04/19 09:36:38;;;;;;;;;;;;;;;;;;5100607;28;20303;-54
2022/04/19 09:39:04;;;;;;;;;;;;;;;;;;5115502;27;19908;-53
2022/04/19 09:41:31;;;;;;;;;;;;;;;;;;5115579;28;19907;-55
2022/04/19 09:43:57;;;;;;;;;;;;;;;;;;5115365;28;19916;-53
2022/04/19 09:46:24;;;;;;;;;;;;;;;;;;5115348;28;19987;-55
2022/04/19 09:48:50;;;;;;;;;;;;;;;;;;5114895;28;19974;-59
2022/04/19 09:51:17;;;;;;;;;;;;;;;;;;5115305;28;19907;-52
2022/04/19 09:53:43;;;;;;;;;;;;;;;;;;5105837;28;20298;-54
2022/04/19 09:56:10;;;;;;;;;;;;;;;;;;5095103;28;20003;-58
2022/04/19 09:58:36;;;;;;;;;;;;;;;;;;5095090;28;19940;-51
2022/04/19 10:01:03;;;;;;;;;;;;;;;;;;5094778;28;19908;-54
2022/04/19 10:08:40;;;;;;;;;;;;;;;;;;5054481;28;19908;-57
2022/04/19 10:11:07;;;;;;;;;;;;;;;;;;5054342;28;20264;-56
2022/04/19 10:13:36;;;;;;;;;;;;;;;;;;5054556;28;19909;-53
2022/04/19 10:16:04;;;;;;;;;;;;;;;;;;5054378;28;19909;-55
2022/04/19 10:18:30;;;;;;;;;;;;;;;;;;5054274;28;19915;-53
2022/04/19 10:20:58;;;;;;;;;;;;;;;;;;5063414;28;19908;-54
2022/04/19 10:23:24;;;;;;;;;;;;;;;;;;5073855;28;19917;-52
2022/04/19 10:25:51;;;;;;;;;;;;;;;;;;5073710;28;19915;-51
2022/04/19 10:28:17;;;;;;;;;;;;;;;;;;5074156;28;20441;-52
2022/04/19 10:30:43;;;;;;;;;;;;;;;;;;5074314;28;19935;-48
2022/04/19 10:33:10;;;;;;;;;;;;;;;;;;5073767;28;19923;-53
2022/04/19 10:35:36;;;;;;;;;;;;;;;;;;5073308;28;19913;-50
2022/04/19 10:38:03;;;;;;;;;;;;;;;;;;5073927;28;19909;-44
2022/04/19 10:40:29;;;;;;;;;;;;;;;;;;5073132;28;19948;-47
2022/04/19 10:42:56;;;;;;;;;;;;;;;;;;5074092;28;19928;-51
2022/04/19 10:45:25;;;;;;;;;;;;;;;;;;5073677;28;20426;-51
2022/04/19 10:47:52;;;;;;;;;;;;;;;;;;5073533;28;19961;-49
2022/04/19 10:50:19;;;;;;;;;;;;;;;;;;5073676;28;19909;-48
2022/04/19 10:52:46;;;;;;;;;;;;;;;;;;5074028;28;19916;-53
2022/04/19 10:55:14;;;;;;;;;;;;;;;;;;5073455;28;19909;-54
2022/04/19 11:00:29;;;;;;;;;;;;;;;;;;5073571;28;19915;-46
2022/04/19 11:02:56;;;;;;;;;;;;;;;;;;5073123;28;20002;-50
2022/04/19 11:05:23;;;;;;;;;;;;;;;;;;5100431;28;19942;-49
2022/04/19 11:07:49;;;;;;;;;;;;;;;;;;5113927;28;19908;-56
2022/04/19 11:10:19;;;;;;;;;;;;;;;;;;5113511;28;19912;-46
2022/04/19 11:12:45;;;;;;;;;;;;;;;;;;5114552;28;19915;-52
2022/04/19 11:15:12;;;;;;;;;;;;;;;;;;5113305;27;19908;-55
2022/04/19 11:17:39;;;;;;;;;;;;;;;;;;5113650;28;19953;-53
2022/04/19 11:20:05;;;;;;;;;;;;;;;;;;5113460;28;19933;-52
2022/04/19 11:22:32;;;;;;;;;;;;;;;;;;5113898;28;19919;-52
2022/04/19 11:24:58;;;;;;;;;;;;;;;;;;5113729;28;19992;-55
2022/04/19 11:27:25;;;;;;;;;;;;;;;;;;5113384;28;19908;-51
2022/04/19 11:29:52;;;;;;;;;;;;;;;;;;5113715;28;19912;-55
2022/04/19 11:32:18;;;;;;;;;;;;;;;;;;5113461;27;19907;-51
2022/04/19 11:34:45;;;;;;;;;;;;;;;;;;5113263;28;19907;-55
2022/04/19 11:37:11;;;;;;;;;;;;;;;;;;5113653;28;19908;-48
2022/04/19 11:47:52;;;;;;;;;;;;;;;;;;5113391;28;19969;-52
2022/04/19 11:50:18;;;;;;;;;;;;;;;;;;5113356;28;19953;-53
2022/04/19 11:52:45;;;;;;;;;;;;;;;;;;5113070;28;19934;-58
2022/04/19 11:55:11;;;;;;;;;;;;;;;;;;5113043;28;19927;-55
2022/04/19 11:57:39;;;;;;;;;;;;;;;;;;5113167;28;19904;-51
2022/04/19 12:00:06;;;;;;;;;;;;;;;;;;5113473;28;20249;-50
2022/04/19 12:02:33;;;;;;;;;;;;;;;;;;5113133;28;19923;-56
2022/04/19 12:05:02;;;;;;;;;;;;;;;;;;5112798;28;19923;-58
2022/04/19 12:07:29;;;;;;;;;;;;;;;;;;5113591;28;20366;-55
2022/04/19 12:09:55;;;;;;;;;;;;;;;;;;5113556;28;20230;-55
2022/04/19 12:12:22;;;;;;;;;;;;;;;;;;5099670;28;19962;-56
2022/04/19 12:14:48;;;;;;;;;;;;;;;;;;5093156;28;20362;-52
2022/04/19 12:17:15;;;;;;;;;;;;;;;;;;5092852;28;20290;-56
2022/04/19 12:19:41;;;;;;;;;;;;;;;;;;5106106;28;20392;-54
2022/04/19 12:22:08;;;;;;;;;;;;;;;;;;5113422;28;19958;-57
2022/04/19 12:24:34;;;;;;;;;;;;;;;;;;5101936;28;20367;-53
2022/04/19 12:27:00;;;;;;;;;;;;;;;;;;5092896;28;20361;-49
2022/04/19 12:29:27;;;;;;;;;;;;;;;;;;5092671;28;20254;-48
2022/04/19 12:31:53;;;;;;;;;;;;;;;;;;5097095;28;20316;-52
2022/04/19 12:34:20;;;;;;;;;;;;;;;;;;5113034;28;20274;-47
2022/04/19 12:36:46;;;;;;;;;;;;;;;;;;5111020;28;19919;-50
2022/04/19 12:39:13;;;;;;;;;;;;;;;;;;5092575;28;19908;-53
2022/04/19 12:41:39;;;;;;;;;;;;;;;;;;5092744;28;20362;-57
2022/04/19 12:44:06;;;;;;;;;;;;;;;;;;5095932;28;19920;-58
2022/04/19 12:46:32;;;;;;;;;;;;;;;;;;5096519;28;19912;-56
2022/04/19 12:48:59;;;;;;;;;;;;;;;;;;5096368;28;20374;-59
2022/04/19 12:51:25;;;;;;;;;;;;;;;;;;5096061;28;19961;-57
2022/04/19 12:53:52;;;;;;;;;;;;;;;;;;5096294;28;19916;-54
2022/04/19 12:59:02;;;;;;;;;;;;;;;;;;5096321;28;19919;-56
2022/04/19 13:01:29;;;;;;;;;;;;;;;;;;5096546;28;20335;-55
2022/04/19 13:03:55;;;;;;;;;;;;;;;;;;5095767;28;19916;-48
2022/04/19 13:14:36;;;;;;;;;;;;;;;;;;5116758;28;20269;-50
2022/04/19 13:17:03;;;;;;;;;;;;;;;;;;5116433;28;19904;-53
2022/04/19 13:19:29;;;;;;;;;;;;;;;;;;5116205;28;20009;-52
2022/04/19 13:21:56;;;;;;;;;;;;;;;;;;5116257;28;19991;-51
2022/04/19 13:24:22;;;;;;;;;;;;;;;;;;5115985;28;20469;-57
2022/04/19 13:26:49;;;;;;;;;;;;;;;;;;5116240;28;19960;-56
2022/04/19 13:29:15;;;;;;;;;;;;;;;;;;5115712;28;20358;-55
2022/04/19 13:31:42;;;;;;;;;;;;;;;;;;5116256;28;19915;-53
2022/04/19 13:34:09;;;;;;;;;;;;;;;;;;5115985;28;19908;-55
2022/04/19 13:36:35;;;;;;;;;;;;;;;;;;5115877;28;20350;-56
2022/04/19 13:39:05;;;;;;;;;;;;;;;;;;5115968;28;19922;-55
2022/04/19 13:41:31;;;;;;;;;;;;;;;;;;5116133;28;19908;-50
2022/04/19 13:43:58;;;;;;;;;;;;;;;;;;5115938;28;19934;-54
2022/04/19 13:46:24;;;;;;;;;;;;;;;;;;5115687;28;19908;-54
2022/04/19 13:48:50;;;;;;;;;;;;;;;;;;5115736;28;20347;-51
2022/04/19 13:51:17;;;;;;;;;;;;;;;;;;5115390;28;19912;-55
2022/04/19 13:53:43;;;;;;;;;;;;;;;;;;5115059;28;20300;-59
2022/04/19 13:56:10;;;;;;;;;;;;;;;;;;5115248;28;19961;-55
2022/04/19 13:58:36;;;;;;;;;;;;;;;;;;5115780;28;19916;-54
2022/04/19 14:01:03;;;;;;;;;;;;;;;;;;5115342;28;20270;-51
2022/04/19 14:03:29;;;;;;;;;;;;;;;;;;5115471;28;19927;-54
2022/04/19 14:05:56;;;;;;;;;;;;;;;;;;5115024;28;19924;-55
2022/04/19 14:08:22;;;;;;;;;;;;;;;;;;5115466;28;19985;-55
2022/04/19 14:10:49;;;;;;;;;;;;;;;;;;5115248;28;19908;-54
2022/04/19 14:13:16;;;;;;;;;;;;;;;;;;5115338;28;20398;-53
2022/04/19 14:15:43;;;;;;;;;;;;;;;;;;5115229;28;19991;-56
2022/04/19 14:18:09;;;;;;;;;;;;;;;;;;5114894;27;19953;-55
2022/04/19 14:20:36;;;;;;;;;;;;;;;;;;5114827;28;19908;-50
2022/04/19 14:23:03;;;;;;;;;;;;;;;;;;5114091;28;19916;-43
2022/04/19 14:25:29;;;;;;;;;;;;;;;;;;5114908;28;19911;-57
2022/04/19 14:27:56;;;;;;;;;;;;;;;;;;5113420;28;20370;-53
2022/04/19 14:33:16;;;;;;;;;;;;;;;;;;5094344;28;19915;-52
2022/04/19 14:35:43;;;;;;;;;;;;;;;;;;5094590;28;19977;-49
2022/04/19 14:38:09;;;;;;;;;;;;;;;;;;5094578;28;19931;-50
2022/04/19 14:40:35;;;;;;;;;;;;;;;;;;5094312;28;19908;-56
2022/04/19 14:43:02;;;;;;;;;;;;;;;;;;5094492;28;20367;-52
2022/04/19 14:45:28;;;;;;;;;;;;;;;;;;5094557;28;20049;-49
2022/04/19 14:47:56;;;;;;;;;;;;;;;;;;5097233;28;19908;-56
2022/04/19 14:50:22;;;;;;;;;;;;;;;;;;5114753;28;19912;-52
2022/04/19 14:52:48;;;;;;;;;;;;;;;;;;5114862;28;19908;-55
2022/04/19 14:55:15;;;;;;;;;;;;;;;;;;5113974;28;19908;-56
2022/04/19 14:57:42;;;;;;;;;;;;;;;;;;5114433;28;19907;-52
2022/04/19 15:00:08;;;;;;;;;;;;;;;;;;5114404;28;19955;-53
2022/04/19 15:02:35;;;;;;;;;;;;;;;;;;5114042;28;20354;-53
2022/04/19 15:05:04;;;;;;;;;;;;;;;;;;5114277;28;19919;-55
2022/04/19 15:07:30;;;;;;;;;;;;;;;;;;5113956;28;19907;-47
2022/04/19 15:09:57;;;;;;;;;;;;;;;;;;5114176;28;20012;-51
2022/04/19 15:12:26;;;;;;;;;;;;;;;;;;5114260;28;19908;-47
2022/04/19 15:14:53;;;;;;;;;;;;;;;;;;5114131;28;19915;-54
2022/04/19 15:17:19;;;;;;;;;;;;;;;;;;5113395;28;19908;-54
2022/04/19 15:19:46;;;;;;;;;;;;;;;;;;5114095;28;19911;-51
2022/04/19 15:22:13;;;;;;;;;;;;;;;;;;5112573;28;20019;-56
2022/04/19 15:24:40;;;;;;;;;;;;;;;;;;5114079;28;19918;-54
2022/04/19 15:27:06;;;;;;;;;;;;;;;;;;5113894;28;20373;-48
2022/04/19 15:29:32;;;;;;;;;;;;;;;;;;5114089;28;19962;-56
2022/04/19 15:31:59;;;;;;;;;;;;;;;;;;5114004;28;20001;-52
2022/04/19 15:34:26;;;;;;;;;;;;;;;;;;5113402;28;19921;-53
2022/04/19 15:36:52;;;;;;;;;;;;;;;;;;5114082;28;20293;-56
2022/04/19 15:39:19;;;;;;;;;;;;;;;;;;5113798;28;19998;-54
2022/04/19 15:41:45;;;;;;;;;;;;;;;;;;5113765;28;19915;-51
2022/04/19 15:44:12;;;;;;;;;;;;;;;;;;5113657;28;19916;-55
2022/04/19 15:46:38;;;;;;;;;;;;;;;;;;5113849;28;20045;-55
2022/04/19 15:49:05;;;;;;;;;;;;;;;;;;5113455;28;19974;-52
2022/04/19 15:51:32;;;;;;;;;;;;;;;;;;5113902;28;20354;-52
2022/04/19 15:53:58;;;;;;;;;;;;;;;;;;5097102;28;20367;-52
2022/04/19 15:56:28;;;;;;;;;;;;;;;;;;5093357;28;19908;-55
2022/04/19 15:58:56;;;;;;;;;;;;;;;;;;5093429;28;19939;-53
2022/04/19 16:01:22;;;;;;;;;;;;;;;;;;5093404;28;20022;-53
2022/04/19 16:03:48;;;;;;;;;;;;;;;;;;5093098;28;19917;-55
2022/04/19 16:06:15;;;;;;;;;;;;;;;;;;5093238;28;19916;-54
2022/04/19 16:08:41;;;;;;;;;;;;;;;;;;5093576;28;19953;-56
2022/04/19 16:11:08;;;;;;;;;;;;;;;;;;5107423;28;19908;-56
2022/04/19 16:13:35;;;;;;;;;;;;;;;;;;5113558;28;20339;-52
2022/04/19 16:24:15;;;;;;;;;;;;;;;;;;5117616;28;19985;-54
2022/04/19 16:26:41;;;;;;;;;;;;;;;;;;5117481;28;19914;-50
2022/04/19 16:29:08;;;;;;;;;;;;;;;;;;5117136;28;19915;-51
2022/04/19 16:31:34;;;;;;;;;;;;;;;;;;5117294;28;20270;-46
2022/04/19 16:34:01;;;;;;;;;;;;;;;;;;5106518;28;19908;-56
2022/04/19 16:36:27;;;;;;;;;;;;;;;;;;5097362;28;19915;-55
2022/04/19 16:38:54;;;;;;;;;;;;;;;;;;5096750;28;19908;-49
2022/04/19 16:41:21;;;;;;;;;;;;;;;;;;5096724;28;19908;-55
2022/04/19 16:43:47;;;;;;;;;;;;;;;;;;5096820;28;20273;-52
2022/04/19 16:46:14;;;;;;;;;;;;;;;;;;5096764;28;19916;-55
2022/04/19 16:48:41;;;;;;;;;;;;;;;;;;5096509;28;19908;-52
2022/04/19 16:51:07;;;;;;;;;;;;;;;;;;5096685;28;19908;-55
2022/04/19 16:53:35;;;;;;;;;;;;;;;;;;5096569;28;19909;-52
2022/04/19 16:56:02;;;;;;;;;;;;;;;;;;5096617;28;20381;-56
2022/04/19 16:58:28;;;;;;;;;;;;;;;;;;5096609;28;19908;-54
2022/04/19 17:00:55;;;;;;;;;;;;;;;;;;5096461;28;19908;-55
2022/04/19 17:06:06;;;;;;;;;;;;;;;;;;5096723;28;19931;-53
2022/04/19 17:08:33;;;;;;;;;;;;;;;;;;5116702;28;19966;-53
2022/04/19 17:10:59;;;;;;;;;;;;;;;;;;5117017;28;19908;-54
2022/04/19 17:13:25;;;;;;;;;;;;;;;;;;5115952;28;19908;-51
2022/04/19 17:15:52;;;;;;;;;;;;;;;;;;5116564;28;20339;-55
2022/04/19 17:18:18;;;;;;;;;;;;;;;;;;5116452;28;20246;-52
2022/04/19 17:20:45;;;;;;;;;;;;;;;;;;5116937;28;19953;-51
2022/04/19 17:23:11;;;;;;;;;;;;;;;;;;5116093;28;19911;-55
2022/04/19 17:25:38;;;;;;;;;;;;;;;;;;5116104;28;20349;-56
2022/04/19 17:28:04;;;;;;;;;;;;;;;;;;5116227;28;19926;-56
2022/04/19 17:30:31;;;;;;;;;;;;;;;;;;5116312;28;20300;-49
2022/04/19 17:32:57;;;;;;;;;;;;;;;;;;5116238;28;20372;-52
2022/04/19 17:35:24;;;;;;;;;;;;;;;;;;5115773;28;20532;-51
2022/04/19 17:37:52;;;;;;;;;;;;;;;;;;5116173;28;19908;-51
2022/04/19 17:40:19;;;;;;;;;;;;;;;;;;5115999;28;19976;-50
2022/04/19 17:42:45;;;;;;;;;;;;;;;;;;5115792;28;19920;-54
2022/04/19 17:45:13;;;;;;;;;;;;;;;;;;5115753;28;19922;-52
2022/04/19 17:47:40;;;;;;;;;;;;;;;;;;5115847;28;19953;-55